Time;durP1;ratioP1;P1;durP2;ratioP2;P2;SDS_P1;SDS_P2;PMS_P1;PMS_P2;Temp;Humidity;BMP_temperature;BMP_pressure;BME280_temperature;BME280_humidity;BME280_pressure;Samples;Min_cycle;Max_cycle;Signal;HPM_P1;HPM_P2
2023/01/24 06:29:18;;;;;;;;;;;;;;;5.42;63.84;99734.66;5852277;23;19927;-62
2023/01/24 06:32:05;;;;;;;;;;;;;;;5.15;65.69;99747.41;4873265;29;19924;-62
2023/01/24 06:34:49;;;;;;;;;;;;;;;4.87;66.07;99748.88;4877205;29;19926;-62
2023/01/24 06:37:34;;;;;;;;;;;;;;;4.69;66.99;99756.16;4861773;29;20333;-62
2023/01/24 06:40:00;;;;;;;;;;;;;;;4.52;67.48;99753.06;4877366;29;19927;-62
2023/01/24 06:42:25;;;;;;;;;;;;;;;4.39;68.69;99754.16;4878990;29;19920;-63
2023/01/24 06:44:50;;;;;;;;;;;;;;;4.27;68.53;99753.50;4875769;29;19928;-62
2023/01/24 06:47:15;;;;;;;;;;;;;;;4.19;68.98;99750.19;4873499;29;19951;-62
2023/01/24 06:49:41;;;;;;;;;;;;;;;4.12;69.80;99758.13;4871505;29;20390;-62
2023/01/24 06:52:06;;;;;;;;;;;;;;;7.41;76.65;99750.13;4877441;29;19923;-62
2023/01/24 06:54:32;;;;;;;;;;;;;;;9.42;58.40;99740.47;4871091;29;19920;-65
2023/01/24 06:56:57;;;;;;;;;;;;;;;7.88;56.79;99746.88;4876604;29;19930;-65
2023/01/24 06:59:22;;;;;;;;;;;;;;;6.96;59.38;99750.63;4878065;29;19923;-65
2023/01/24 07:01:51;;;;;;;;;;;;;;;6.33;60.86;99760.22;4876048;29;19950;-64
2023/01/24 07:04:16;;;;;;;;;;;;;;;5.82;62.58;99758.00;4873562;29;19919;-65
2023/01/24 07:06:41;;;;;;;;;;;;;;;5.47;64.12;99762.31;4877605;29;19920;-65
2023/01/24 07:09:06;;;;;;;;;;;;;;;5.19;64.66;99762.03;4878189;29;19916;-64
2023/01/24 07:11:32;;;;;;;;;;;;;;;4.94;66.25;99760.88;4873084;29;19931;-64
2023/01/24 07:13:57;;;;;;;;;;;;;;;4.70;67.26;99767.41;4877790;29;19926;-63
2023/01/24 07:16:22;;;;;;;;;;;;;;;4.56;67.85;99764.25;4879416;29;19916;-65
2023/01/24 07:18:47;;;;;;;;;;;;;;;4.47;68.87;99773.06;4878629;29;19926;-64
2023/01/24 07:21:13;;;;;;;;;;;;;;;4.38;68.31;99771.50;4878295;29;19927;-63
2023/01/24 07:23:38;;;;;;;;;;;;;;;4.31;69.12;99777.69;4878618;29;19966;-64
2023/01/24 07:26:03;;;;;;;;;;;;;;;4.22;70.01;99775.25;4878438;29;19971;-64
2023/01/24 07:28:29;;;;;;;;;;;;;;;4.17;70.29;99782.28;4879308;29;19916;-63
2023/01/24 07:30:54;;;;;;;;;;;;;;;4.13;70.01;99780.59;4878803;29;20373;-63
2023/01/24 07:33:19;;;;;;;;;;;;;;;4.10;69.82;99778.06;4876853;29;20059;-64
2023/01/24 07:35:44;;;;;;;;;;;;;;;4.08;69.62;99769.44;4879133;29;20000;-63
2023/01/24 07:38:11;;;;;;;;;;;;;;;4.03;70.53;99772.97;4879139;29;19938;-64
2023/01/24 07:40:36;;;;;;;;;;;;;;;4.02;70.63;99779.03;4878926;29;20412;-63
2023/01/24 07:43:02;;;;;;;;;;;;;;;4.00;70.40;99775.63;4875567;29;20024;-65
2023/01/24 07:45:27;;;;;;;;;;;;;;;4.01;70.66;99786.88;4878081;29;20073;-65
2023/01/24 07:47:56;;;;;;;;;;;;;;;3.98;70.72;99781.72;4877567;29;19923;-65
2023/01/24 07:50:21;;;;;;;;;;;;;;;3.95;70.86;99793.00;4877786;29;19919;-65
2023/01/24 07:52:49;;;;;;;;;;;;;;;3.94;71.24;99793.91;4877945;29;19951;-65
2023/01/24 07:55:14;;;;;;;;;;;;;;;3.93;71.15;99797.38;4873948;29;19919;-65
2023/01/24 07:57:40;;;;;;;;;;;;;;;3.94;71.59;99793.91;4878911;29;20389;-63
2023/01/24 08:00:05;;;;;;;;;;;;;;;3.97;71.67;99791.25;4878279;29;19920;-65
2023/01/24 08:02:30;;;;;;;;;;;;;;;3.98;71.24;99803.34;4878680;29;19916;-62
2023/01/24 08:04:56;;;;;;;;;;;;;;;3.97;71.45;99806.84;4876979;29;20381;-64
2023/01/24 08:07:21;;;;;;;;;;;;;;;3.98;71.29;99808.53;4878674;29;20439;-63
2023/01/24 08:09:47;;;;;;;;;;;;;;;3.98;71.38;99812.88;4878654;29;20517;-64
2023/01/24 08:12:12;;;;;;;;;;;;;;;3.98;71.47;99812.88;4877734;29;20356;-63
2023/01/24 08:14:38;;;;;;;;;;;;;;;4.00;71.62;99817.16;4876638;29;20280;-64
2023/01/24 08:17:03;;;;;;;;;;;;;;;4.00;71.48;99817.16;4878090;29;19927;-64
2023/01/24 08:19:28;;;;;;;;;;;;;;;4.00;70.87;99817.16;4878616;29;20368;-65
2023/01/24 08:21:53;;;;;;;;;;;;;;;4.01;70.89;99821.47;4877945;29;20276;-64
2023/01/24 08:24:19;;;;;;;;;;;;;;;4.01;71.15;99824.06;4878245;29;19915;-64
2023/01/24 08:26:46;;;;;;;;;;;;;;;4.03;71.48;99819.72;4878656;29;20032;-63
2023/01/24 08:29:11;;;;;;;;;;;;;;;4.03;71.38;99832.69;4876899;29;20372;-63
2023/01/24 08:31:36;;;;;;;;;;;;;;;4.04;71.28;99831.81;4877678;29;20019;-64
2023/01/24 08:34:02;;;;;;;;;;;;;;;4.07;71.54;99830.06;4875205;29;20372;-64
2023/01/24 08:36:27;;;;;;;;;;;;;;;4.07;71.19;99832.66;4877603;29;20388;-65
2023/01/24 08:38:52;;;;;;;;;;;;;;;4.07;71.17;99835.25;4877859;29;20402;-64
2023/01/24 08:41:17;;;;;;;;;;;;;;;4.09;71.28;99836.06;4877686;29;20352;-63
2023/01/24 08:43:43;;;;;;;;;;;;;;;4.08;70.87;99840.41;4873654;29;20281;-64
2023/01/24 08:46:08;;;;;;;;;;;;;;;4.10;71.43;99848.19;4876627;29;19924;-64
2023/01/24 08:48:33;;;;;;;;;;;;;;;4.10;70.65;99843.84;4877019;29;20387;-63
2023/01/24 08:50:58;;;;;;;;;;;;;;;4.12;70.94;99847.25;4877502;29;20379;-63
2023/01/24 08:53:23;;;;;;;;;;;;;;;4.13;70.83;99843.81;4877345;29;20283;-63
2023/01/24 08:55:49;;;;;;;;;;;;;;;4.17;71.09;99855.00;4864699;29;20296;-65
2023/01/24 08:58:14;;;;;;;;;;;;;;;4.15;70.28;99851.56;4877275;29;20296;-64
2023/01/24 09:00:40;;;;;;;;;;;;;;;4.17;70.76;99855.00;4877236;29;19916;-64
2023/01/24 09:03:05;;;;;;;;;;;;;;;4.20;71.04;99852.34;4877107;29;19916;-64
2023/01/24 09:05:30;;;;;;;;;;;;;;;4.22;70.81;99855.75;4873800;29;19920;-65
2023/01/24 09:07:56;;;;;;;;;;;;;;;4.25;70.76;99855.72;4876495;29;19927;-64
2023/01/24 09:10:21;;;;;;;;;;;;;;;4.27;70.64;99859.16;4875505;29;19927;-63
2023/01/24 09:12:46;;;;;;;;;;;;;;;4.30;70.48;99853.88;4877282;29;19995;-64
2023/01/24 09:15:11;;;;;;;;;;;;;;;4.33;70.43;99855.59;4876351;29;19961;-65
2023/01/24 09:17:37;;;;;;;;;;;;;;;4.34;70.67;99863.38;4876282;29;19920;-64
2023/01/24 09:20:02;;;;;;;;;;;;;;;4.37;70.48;99857.25;4875771;29;20011;-65
2023/01/24 09:22:27;;;;;;;;;;;;;;;4.40;70.63;99860.63;4876252;29;19916;-64
2023/01/24 09:24:52;;;;;;;;;;;;;;;4.43;70.17;99857.13;4876964;29;19916;-64
2023/01/24 09:27:18;;;;;;;;;;;;;;;4.43;70.10;99862.34;4873291;29;19959;-65
2023/01/24 09:29:43;;;;;;;;;;;;;;;4.45;69.75;99861.44;4815821;29;1771586;-63
2023/01/24 09:32:08;;;;;;;;;;;;;;;4.50;70.00;99857.00;4877339;29;19920;-64
2023/01/24 09:34:33;;;;;;;;;;;;;;;4.53;70.07;99851.75;4877586;29;19916;-63
2023/01/24 09:36:59;;;;;;;;;;;;;;;4.56;69.96;99860.38;4876873;29;19923;-64
2023/01/24 09:39:24;;;;;;;;;;;;;;;4.61;70.13;99858.56;4873911;29;20002;-64
2023/01/24 09:42:00;;;;;;;;;;;;;;;4.64;69.43;99861.94;4876185;29;20419;-64
2023/01/24 09:44:34;;;;;;;;;;;;;;;4.66;69.46;99860.19;4879257;29;19931;-64
2023/01/24 09:47:00;;;;;;;;;;;;;;;4.71;69.30;99862.69;4862444;29;19968;-63
2023/01/24 09:49:33;;;;;;;;;;;;;;;4.74;69.45;99870.44;4861126;29;19924;-65
2023/01/24 09:51:58;;;;;;;;;;;;;;;4.77;69.01;99854.78;4867062;29;19924;-62
2023/01/24 09:54:29;;;;;;;;;;;;;;;4.81;69.14;99856.44;4878703;29;19920;-64
2023/01/24 09:56:55;;;;;;;;;;;;;;;4.83;69.15;99854.69;4880883;29;20007;-63
2023/01/24 09:59:21;;;;;;;;;;;;;;;4.86;68.78;99857.22;4880792;29;19963;-63
2023/01/24 10:01:50;;;;;;;;;;;;;;;4.89;69.05;99862.38;4879388;29;20301;-63
2023/01/24 10:04:15;;;;;;;;;;;;;;;4.92;68.57;99857.13;4877042;29;20368;-64
2023/01/24 10:06:41;;;;;;;;;;;;;;;4.94;68.29;99852.72;4879895;29;19920;-64
2023/01/24 10:09:07;;;;;;;;;;;;;;;4.96;68.52;99855.31;4879246;29;19919;-63
2023/01/24 10:11:47;;;;;;;;;;;;;;;4.98;68.26;99861.31;4880673;29;19923;-63
2023/01/24 10:14:20;;;;;;;;;;;;;;;5.02;68.34;99862.97;4874380;29;19968;-63
2023/01/24 10:16:51;;;;;;;;;;;;;;;5.05;67.90;99849.91;4880194;29;20332;-65
2023/01/24 10:19:16;;;;;;;;;;;;;;;5.09;68.58;99853.31;4880502;29;20001;-63
2023/01/24 10:21:44;;;;;;;;;;;;;;;5.10;68.12;99855.03;4880587;29;19951;-64
2023/01/24 10:24:11;;;;;;;;;;;;;;;5.11;68.45;99847.19;4879218;29;19919;-64
2023/01/24 10:26:42;;;;;;;;;;;;;;;5.14;68.23;99854.94;4878026;29;20376;-63
2023/01/24 10:29:13;;;;;;;;;;;;;;;5.17;68.37;99856.63;4879177;29;19976;-64
2023/01/24 10:31:40;;;;;;;;;;;;;;;5.18;67.87;99853.97;4880324;29;19948;-64
2023/01/24 10:34:19;;;;;;;;;;;;;;;5.21;67.90;99860.88;4877938;29;20391;-66
2023/01/24 10:36:45;;;;;;;;;;;;;;;5.22;67.97;99854.78;4877404;29;19920;-64
2023/01/24 10:39:11;;;;;;;;;;;;;;;5.24;67.76;99847.81;4878820;29;20002;-64
2023/01/24 10:41:36;;;;;;;;;;;;;;;5.25;68.01;99849.50;4880382;29;20370;-63
2023/01/24 10:44:03;;;;;;;;;;;;;;;5.24;67.84;99848.66;4877482;29;19916;-65
2023/01/24 10:46:28;;;;;;;;;;;;;;;5.25;68.45;99854.72;4878097;29;19924;-66
2023/01/24 10:48:53;;;;;;;;;;;;;;;5.24;67.98;99837.41;4879605;29;20308;-64
2023/01/24 10:51:22;;;;;;;;;;;;;;;5.27;68.10;99842.53;4878757;29;19971;-64
2023/01/24 10:53:47;;;;;;;;;;;;;;;5.29;68.09;99845.09;4876619;29;19923;-65
2023/01/24 10:56:17;;;;;;;;;;;;;;;5.28;67.60;99848.59;4877993;29;19920;-66
2023/01/24 10:58:43;;;;;;;;;;;;;;;5.28;67.31;99844.25;4879707;29;19916;-64
2023/01/24 11:01:17;;;;;;;;;;;;;;;5.28;67.52;99846.84;4878554;29;19916;-66
2023/01/24 11:03:42;;;;;;;;;;;;;;;5.28;67.54;99844.25;4878207;29;19916;-64
2023/01/24 11:06:20;;;;;;;;;;;;;;;5.30;67.13;99839.00;4877103;29;20311;-65
2023/01/24 11:08:46;;;;;;;;;;;;;;;5.30;67.43;99832.06;4877797;29;19980;-64
2023/01/24 11:11:19;;;;;;;;;;;;;;;5.32;67.69;99830.28;4878378;29;20403;-64
2023/01/24 11:13:44;;;;;;;;;;;;;;;5.34;67.62;99828.50;4878288;29;19916;-65
2023/01/24 11:16:15;;;;;;;;;;;;;;;5.36;67.66;99831.91;4858950;29;20391;-64
2023/01/24 11:18:45;;;;;;;;;;;;;;;5.36;67.55;99829.31;4877935;29;19920;-65
2023/01/24 11:21:12;;;;;;;;;;;;;;;5.36;67.66;99834.53;4878249;29;19916;-66
2023/01/24 11:23:37;;;;;;;;;;;;;;;5.35;67.74;99832.81;4879261;29;20285;-63
2023/01/24 11:26:03;;;;;;;;;;;;;;;5.36;67.70;99829.31;4876005;29;20012;-66
2023/01/24 11:28:33;;;;;;;;;;;;;;;5.38;67.73;99830.16;4875144;29;19983;-65
2023/01/24 11:31:02;;;;;;;;;;;;;;;5.40;67.06;99823.19;4870566;29;19976;-63
2023/01/24 11:33:46;;;;;;;;;;;;;;;5.41;67.33;99814.47;4879009;29;19958;-64
2023/01/24 11:36:16;;;;;;;;;;;;;;;5.44;66.90;99814.41;4878854;29;20296;-66
2023/01/24 11:38:42;;;;;;;;;;;;;;;5.50;66.78;99813.41;4872299;29;19975;-64
2023/01/24 11:41:11;;;;;;;;;;;;;;;5.56;66.70;99809.81;4877916;29;19916;-64
2023/01/24 11:43:39;;;;;;;;;;;;;;;5.61;66.88;99805.34;4877755;29;19920;-64
2023/01/24 11:46:07;;;;;;;;;;;;;;;5.65;66.85;99802.66;4878835;29;19923;-64
2023/01/24 11:48:41;;;;;;;;;;;;;;;5.71;66.68;99796.44;4872165;29;19924;-65
2023/01/24 11:51:06;;;;;;;;;;;;;;;5.76;66.52;99794.59;4877506;29;19916;-64
2023/01/24 11:53:44;;;;;;;;;;;;;;;9.75;71.75;99790.69;4877697;29;19915;-64
2023/01/24 11:56:16;;;;;;;;;;;;;;;12.20;57.27;99781.47;4878647;29;20014;-64
2023/01/24 11:59:01;;;;;;;;;;;;;;;10.85;50.25;99785.19;4874167;29;19928;-67
2023/01/24 12:01:30;;;;;;;;;;;;;;;9.52;53.43;99791.56;4873748;29;19919;-65
2023/01/24 12:04:14;;;;;;;;;;;;;;;8.75;55.09;99789.22;4877078;29;19959;-65
2023/01/24 12:06:59;;;;;;;;;;;;;;;8.16;55.96;99789.50;4878757;29;19919;-63
2023/01/24 12:09:25;;;;;;;;;;;;;;;7.74;57.93;99787.41;4872888;29;19924;-63
2023/01/24 12:11:56;;;;;;;;;;;;;;;7.44;59.80;99783.13;4876140;29;19920;-64
2023/01/24 12:14:32;;;;;;;;;;;;;;;7.18;60.34;99791.72;4877153;29;20006;-66
2023/01/24 12:17:16;;;;;;;;;;;;;;;6.95;60.72;99785.44;4877564;29;19939;-63
2023/01/24 12:19:46;;;;;;;;;;;;;;;6.78;61.96;99791.13;4877558;29;19927;-63
2023/01/24 12:22:16;;;;;;;;;;;;;;;6.65;61.96;99784.53;4878530;29;20066;-63
2023/01/24 12:24:41;;;;;;;;;;;;;;;6.51;62.69;99789.28;4867426;29;20057;-63
2023/01/24 12:27:11;;;;;;;;;;;;;;;6.44;62.71;99792.94;4869896;29;20270;-66
2023/01/24 12:29:40;;;;;;;;;;;;;;;6.32;63.21;99789.75;4866116;29;19931;-66
2023/01/24 12:32:12;;;;;;;;;;;;;;;6.19;63.68;99788.34;4874886;29;19919;-65
2023/01/24 12:34:46;;;;;;;;;;;;;;;6.15;63.88;99798.00;4875606;29;19927;-67
2023/01/24 12:37:27;;;;;;;;;;;;;;;6.10;65.05;99793.81;4871067;29;19919;-67
2023/01/24 12:40:11;;;;;;;;;;;;;;;6.04;64.65;99793.97;4871783;29;20005;-67
2023/01/24 12:42:42;;;;;;;;;;;;;;;6.00;65.61;99798.38;4876729;29;20360;-65
2023/01/24 12:45:11;;;;;;;;;;;;;;;5.94;65.96;99794.19;4876346;29;19922;-67
2023/01/24 12:47:44;;;;;;;;;;;;;;;5.89;65.81;99796.03;4871479;29;19919;-66
2023/01/24 12:50:13;;;;;;;;;;;;;;;5.88;65.88;99794.31;4875677;29;20406;-66
2023/01/24 12:52:40;;;;;;;;;;;;;;;5.85;65.60;99794.38;4878295;29;19916;-66
2023/01/24 12:55:22;;;;;;;;;;;;;;;5.82;65.80;99789.25;4876845;29;20297;-66
2023/01/24 12:57:53;;;;;;;;;;;;;;;5.78;65.99;99794.53;4871172;29;19920;-66
2023/01/24 13:00:19;;;;;;;;;;;;;;;5.77;66.13;99788.50;4874776;29;20194;-66
2023/01/24 13:02:48;;;;;;;;;;;;;;;5.73;66.42;99789.47;4875268;29;20372;-64
2023/01/24 13:05:32;;;;;;;;;;;;;;;5.67;66.28;99795.66;4888139;29;19919;-66
2023/01/24 13:08:15;;;;;;;;;;;;;;;5.63;67.58;99801.81;4863491;29;19979;-65
2023/01/24 13:10:53;;;;;;;;;;;;;;;5.61;66.88;99795.81;4867181;29;19920;-65
2023/01/24 13:13:23;;;;;;;;;;;;;;;5.57;67.14;99801.09;4871139;29;20515;-66
2023/01/24 13:15:54;;;;;;;;;;;;;;;5.52;67.13;99801.22;4877594;29;20007;-65
2023/01/24 13:18:22;;;;;;;;;;;;;;;5.53;67.79;99802.94;4868185;29;19928;-65
2023/01/24 13:20:51;;;;;;;;;;;;;;;5.51;67.96;99799.53;4868713;29;20292;-65
2023/01/24 13:23:23;;;;;;;;;;;;;;;5.50;67.32;99803.00;4879135;29;19930;-66
2023/01/24 13:25:54;;;;;;;;;;;;;;;5.47;68.41;99809.16;4881310;29;20002;-66
2023/01/24 13:28:25;;;;;;;;;;;;;;;5.47;68.32;99806.53;4875905;29;19924;-65
2023/01/24 13:30:55;;;;;;;;;;;;;;;5.44;67.84;99806.59;4872253;29;20007;-65
2023/01/24 13:33:21;;;;;;;;;;;;;;;5.44;68.01;99808.34;4875039;29;20517;-63
2023/01/24 13:35:50;;;;;;;;;;;;;;;5.40;68.57;99802.38;4879449;29;20010;-66
2023/01/24 13:38:21;;;;;;;;;;;;;;;5.37;68.24;99818.03;4880148;29;19922;-63
2023/01/24 13:41:02;;;;;;;;;;;;;;;5.32;68.62;99809.47;4880373;29;19955;-66
2023/01/24 13:43:46;;;;;;;;;;;;;;;5.29;68.65;99796.53;4875756;29;19924;-66
2023/01/24 13:46:11;;;;;;;;;;;;;;;5.27;68.11;99806.13;4875230;29;20384;-66
2023/01/24 13:48:46;;;;;;;;;;;;;;;5.24;68.14;99804.44;4881086;29;19919;-66
2023/01/24 13:51:21;;;;;;;;;;;;;;;5.21;68.08;99801.03;4881128;29;19923;-66
2023/01/24 13:53:59;;;;;;;;;;;;;;;5.21;69.34;99798.44;4879907;29;20012;-66
2023/01/24 13:56:24;;;;;;;;;;;;;;;5.20;69.43;99804.53;4879819;29;19984;-66
2023/01/24 13:58:50;;;;;;;;;;;;;;;5.20;68.91;99794.13;4881204;29;20379;-66
2023/01/24 14:01:16;;;;;;;;;;;;;;;5.19;69.01;99792.41;4879850;29;19923;-66
2023/01/24 14:03:41;;;;;;;;;;;;;;;5.20;69.00;99789.78;4877898;29;19920;-67
2023/01/24 14:06:07;;;;;;;;;;;;;;;5.19;68.76;99793.25;4879450;29;19943;-67
2023/01/24 14:08:34;;;;;;;;;;;;;;;5.18;68.47;99795.91;4879574;29;20296;-67
2023/01/24 14:11:02;;;;;;;;;;;;;;;5.17;69.23;99789.00;4879659;29;19974;-66
2023/01/24 14:13:46;;;;;;;;;;;;;;;5.16;68.99;99792.47;4877836;29;19920;-66
2023/01/24 14:16:31;;;;;;;;;;;;;;;5.12;69.07;99785.63;4877539;29;19920;-66
2023/01/24 14:19:07;;;;;;;;;;;;;;;5.10;69.27;99790.03;4861948;29;20265;-66
2023/01/24 14:21:51;;;;;;;;;;;;;;;5.08;69.54;99786.59;4862096;29;19923;-66
2023/01/24 14:24:24;;;;;;;;;;;;;;;5.04;68.88;99788.38;4863375;29;19919;-65
2023/01/24 14:26:53;;;;;;;;;;;;;;;4.99;69.31;99801.50;4877599;29;19923;-66
2023/01/24 14:29:18;;;;;;;;;;;;;;;4.97;69.08;99803.25;4880201;29;19936;-65
2023/01/24 14:31:44;;;;;;;;;;;;;;;4.93;69.40;99786.00;4880456;29;19915;-65
2023/01/24 14:34:20;;;;;;;;;;;;;;;4.94;69.20;99794.66;4879016;29;20403;-66
2023/01/24 14:36:46;;;;;;;;;;;;;;;4.92;69.43;99799.91;4871437;29;20396;-66
2023/01/24 14:39:18;;;;;;;;;;;;;;;4.89;68.91;99794.78;4880197;29;19923;-67
2023/01/24 14:41:44;;;;;;;;;;;;;;;4.88;69.09;99793.03;4879117;29;20015;-66
2023/01/24 14:44:16;;;;;;;;;;;;;;;4.88;69.77;99797.38;4879980;29;19919;-66
2023/01/24 14:46:41;;;;;;;;;;;;;;;4.87;69.50;99796.53;4876935;29;19931;-66
2023/01/24 14:49:13;;;;;;;;;;;;;;;4.86;70.12;99794.81;4879917;29;19920;-63
2023/01/24 14:51:42;;;;;;;;;;;;;;;4.85;69.72;99807.84;4880051;29;20368;-67
2023/01/24 14:54:16;;;;;;;;;;;;;;;4.81;70.36;99804.44;4878585;29;20294;-65
2023/01/24 14:56:41;;;;;;;;;;;;;;;4.75;69.83;99789.00;4871573;29;19959;-67
2023/01/24 14:59:10;;;;;;;;;;;;;;;4.76;69.67;99798.50;4878171;29;19971;-66
2023/01/24 15:01:35;;;;;;;;;;;;;;;4.70;69.85;99798.59;4879284;29;19920;-66
2023/01/24 15:04:01;;;;;;;;;;;;;;;4.71;70.06;99800.31;4879657;29;20387;-66
2023/01/24 15:06:27;;;;;;;;;;;;;;;4.68;70.92;99806.44;4877477;29;20401;-66
2023/01/24 15:08:59;;;;;;;;;;;;;;;4.66;70.47;99796.97;4877040;29;19923;-66
2023/01/24 15:11:35;;;;;;;;;;;;;;;4.67;70.31;99799.53;4879297;29;19927;-66
2023/01/24 15:14:01;;;;;;;;;;;;;;;4.60;69.73;99813.50;4871199;29;19922;-65
2023/01/24 15:16:31;;;;;;;;;;;;;;;4.58;70.38;99814.47;4878604;29;19915;-67
2023/01/24 15:19:04;;;;;;;;;;;;;;;4.58;70.60;99809.25;4875510;29;19919;-66
2023/01/24 15:21:39;;;;;;;;;;;;;;;4.55;71.02;99806.72;4878226;29;19991;-66
2023/01/24 15:24:05;;;;;;;;;;;;;;;8.57;77.07;99805.56;4878280;29;19916;-62
2023/01/24 15:26:33;;;;;;;;;;;;;;;9.68;56.86;99797.06;4876699;29;19968;-66
2023/01/24 15:28:58;;;;;;;;;;;;;;;8.42;57.84;99800.84;4871752;29;19920;-66
2023/01/24 15:31:27;;;;;;;;;;;;;;;7.68;60.21;99797.19;4877185;29;19948;-64
2023/01/24 15:33:53;;;;;;;;;;;;;;;7.03;61.26;99804.34;4877925;29;20355;-65
2023/01/24 15:36:31;;;;;;;;;;;;;;;6.56;62.79;99818.69;4874783;29;19919;-65
2023/01/24 15:38:57;;;;;;;;;;;;;;;6.18;64.85;99808.34;4875385;29;20361;-66
2023/01/24 15:41:23;;;;;;;;;;;;;;;5.89;65.30;99811.66;4878056;29;20438;-64
2023/01/24 15:43:51;;;;;;;;;;;;;;;5.65;66.09;99807.00;4877798;29;19916;-66
2023/01/24 15:49:19;;;;;;;;;;;;;;;5.23;68.04;99807.94;4872712;29;19931;-65
2023/01/24 15:51:44;;;;;;;;;;;;;;;5.14;68.87;99815.06;4879047;29;19919;-65
2023/01/24 15:54:10;;;;;;;;;;;;;;;5.04;68.91;99818.75;4877512;29;19919;-65
2023/01/24 15:56:35;;;;;;;;;;;;;;;4.90;69.04;99817.28;4879002;29;20002;-64
2023/01/24 15:59:00;;;;;;;;;;;;;;;4.83;69.94;99810.50;4877226;29;20011;-64
2023/01/24 16:01:28;;;;;;;;;;;;;;;4.79;70.29;99815.78;4878797;29;20286;-65
2023/01/24 16:03:53;;;;;;;;;;;;;;;4.72;70.60;99817.66;4878803;29;19920;-63
2023/01/24 16:06:18;;;;;;;;;;;;;;;4.66;70.24;99823.81;4878886;29;19968;-63
2023/01/24 16:08:43;;;;;;;;;;;;;;;4.61;70.89;99822.16;4874983;29;19927;-63
2023/01/24 16:11:09;;;;;;;;;;;;;;;4.57;71.04;99825.72;4878566;29;19919;-63
2023/01/24 16:13:37;;;;;;;;;;;;;;;4.53;71.14;99828.38;4878625;29;20007;-63
2023/01/24 16:16:06;;;;;;;;;;;;;;;4.52;71.10;99831.00;4877583;29;19941;-62
2023/01/24 16:18:31;;;;;;;;;;;;;;;4.46;71.78;99828.50;4872677;29;20019;-65
2023/01/24 16:20:56;;;;;;;;;;;;;;;4.44;71.62;99825.94;4872730;29;20011;-62
2023/01/24 16:23:22;;;;;;;;;;;;;;;4.42;71.36;99822.50;4877079;29;19916;-62
2023/01/24 16:25:47;;;;;;;;;;;;;;;4.33;71.00;99827.84;4878513;29;19920;-64
2023/01/24 16:28:19;;;;;;;;;;;;;;;4.32;71.76;99828.75;4877448;29;19968;-62
2023/01/24 16:30:47;;;;;;;;;;;;;;;4.29;72.17;99823.59;4877273;29;20026;-64
2023/01/24 16:33:12;;;;;;;;;;;;;;;4.25;71.72;99834.94;4878252;29;19972;-64
2023/01/24 16:35:37;;;;;;;;;;;;;;;4.22;72.07;99830.66;4878531;29;19916;-64
2023/01/24 16:38:04;;;;;;;;;;;;;;;4.23;72.34;99841.88;4877342;29;19915;-63
2023/01/24 16:40:29;;;;;;;;;;;;;;;4.20;72.57;99845.41;4875233;29;19920;-62
2023/01/24 16:42:54;;;;;;;;;;;;;;;4.19;72.08;99840.22;4878213;29;19923;-63
2023/01/24 16:45:20;;;;;;;;;;;;;;;4.19;72.23;99842.81;4878339;29;19919;-63
2023/01/24 16:47:45;;;;;;;;;;;;;;;4.18;71.92;99854.09;4878402;29;19916;-63
2023/01/24 16:50:10;;;;;;;;;;;;;;;4.13;71.85;99843.81;4876919;29;19928;-63
2023/01/24 16:52:36;;;;;;;;;;;;;;;4.14;72.46;99847.25;4879881;29;19927;-65
2023/01/24 16:55:01;;;;;;;;;;;;;;;4.12;72.65;99851.59;4881238;29;19926;-64
2023/01/24 16:57:26;;;;;;;;;;;;;;;4.09;72.46;99849.06;4882246;29;20323;-64
2023/01/24 16:59:52;;;;;;;;;;;;;;;4.08;72.70;99849.94;4881092;29;19987;-64
2023/01/24 17:02:17;;;;;;;;;;;;;;;4.07;72.58;99848.25;4878846;29;19920;-65
2023/01/24 17:04:42;;;;;;;;;;;;;;;4.05;72.51;99846.50;4881561;29;19923;-63
2023/01/24 17:07:07;;;;;;;;;;;;;;;4.05;72.80;99846.50;4881987;29;19915;-64
2023/01/24 17:09:33;;;;;;;;;;;;;;;4.07;73.36;99843.91;4881766;29;19931;-66
2023/01/24 17:11:58;;;;;;;;;;;;;;;4.05;73.07;99843.91;4879912;29;19943;-64
2023/01/24 17:14:23;;;;;;;;;;;;;;;4.03;73.01;99843.09;4876294;29;20377;-64
2023/01/24 17:16:49;;;;;;;;;;;;;;;4.04;72.95;99850.00;4881720;29;19927;-65
2023/01/24 17:19:14;;;;;;;;;;;;;;;4.04;73.02;99850.00;4881590;29;19922;-65
2023/01/24 17:21:39;;;;;;;;;;;;;;;4.04;73.02;99859.53;4880618;29;19927;-64
2023/01/24 17:24:05;;;;;;;;;;;;;;;4.03;73.20;99855.22;4878237;29;20416;-64
2023/01/24 17:26:30;;;;;;;;;;;;;;;4.00;73.35;99857.84;4881562;29;20407;-65
2023/01/24 17:28:55;;;;;;;;;;;;;;;3.99;73.28;99851.81;4880391;29;20400;-65
2023/01/24 17:31:21;;;;;;;;;;;;;;;3.97;72.66;99853.56;4880087;29;20460;-64
2023/01/24 17:33:46;;;;;;;;;;;;;;;3.96;73.01;99861.38;4879850;29;20586;-64
2023/01/24 17:36:12;;;;;;;;;;;;;;;3.96;73.56;99862.25;4881314;29;19915;-64
2023/01/24 17:38:38;;;;;;;;;;;;;;;3.94;73.63;99851.00;4881326;29;19916;-64
2023/01/24 17:41:03;;;;;;;;;;;;;;;3.93;73.93;99851.91;4877004;29;19926;-63
2023/01/24 17:43:28;;;;;;;;;;;;;;;3.92;73.56;99855.38;4879781;29;19938;-63
2023/01/24 17:45:55;;;;;;;;;;;;;;;3.93;73.41;99859.69;4880632;29;19920;-63
2023/01/24 17:48:20;;;;;;;;;;;;;;;3.90;73.45;99851.94;4879856;29;19928;-62
2023/01/24 17:50:45;;;;;;;;;;;;;;;3.90;73.12;99851.94;4879051;29;19928;-64
2023/01/24 17:53:10;;;;;;;;;;;;;;;3.91;73.71;99853.66;4875916;29;19920;-64
2023/01/24 17:55:36;;;;;;;;;;;;;;;7.54;87.65;99850.69;4879450;29;19920;-64
2023/01/24 17:58:01;;;;;;;;;;;;;;;7.11;70.52;99844.09;4880866;29;19916;-63
2023/01/24 18:00:26;;;;;;;;;;;;;;;6.62;66.48;99847.19;4881064;29;19944;-64
2023/01/24 18:02:52;;;;;;;;;;;;;;;6.27;67.66;99851.56;4876552;29;20375;-66
2023/01/24 18:05:17;;;;;;;;;;;;;;;5.96;68.41;99853.22;4880536;29;20399;-65
2023/01/24 18:07:42;;;;;;;;;;;;;;;5.73;69.37;99857.16;4880876;29;20021;-65
2023/01/24 18:10:08;;;;;;;;;;;;;;;5.56;70.29;99849.72;4880600;29;19928;-65
2023/01/24 18:12:34;;;;;;;;;;;;;;;5.46;71.38;99845.59;4878580;29;20011;-62
2023/01/24 18:14:59;;;;;;;;;;;;;;;5.31;71.35;99841.59;4879921;29;20007;-66
2023/01/24 18:17:24;;;;;;;;;;;;;;;5.25;71.68;99849.50;4880519;29;19916;-64
2023/01/24 18:19:49;;;;;;;;;;;;;;;5.16;72.14;99839.28;4880574;29;19920;-66
2023/01/24 18:22:14;;;;;;;;;;;;;;;5.11;72.03;99838.53;4880570;29;19923;-65
2023/01/24 18:24:40;;;;;;;;;;;;;;;5.08;72.71;99836.84;4877787;29;19923;-65
2023/01/24 18:27:05;;;;;;;;;;;;;;;5.26;74.37;99840.81;4880406;29;19923;-64
2023/01/24 18:29:30;;;;;;;;;;;;;;;5.04;70.14;99842.16;4880244;29;19932;-65
2023/01/24 18:31:56;;;;;;;;;;;;;;;4.85;70.09;99839.94;4880335;29;20002;-65
2023/01/24 18:34:23;;;;;;;;;;;;;;;4.68;70.00;99837.66;4875324;29;20007;-64
2023/01/24 18:36:48;;;;;;;;;;;;;;;4.58;71.19;99845.63;4875581;29;19920;-66
2023/01/24 18:39:13;;;;;;;;;;;;;;;4.44;70.93;99848.44;4880109;29;19980;-64
2023/01/24 18:41:39;;;;;;;;;;;;;;;4.31;71.10;99842.63;4879651;29;19927;-64
2023/01/24 18:44:04;;;;;;;;;;;;;;;4.29;72.01;99844.38;4875880;29;19920;-66
2023/01/24 18:46:29;;;;;;;;;;;;;;;4.23;72.08;99844.47;4875817;29;19931;-65
2023/01/24 18:48:54;;;;;;;;;;;;;;;4.17;71.96;99840.28;4879365;29;20296;-66
2023/01/24 18:51:20;;;;;;;;;;;;;;;4.13;72.84;99841.22;4879923;29;20332;-66
2023/01/24 18:53:45;;;;;;;;;;;;;;;4.08;72.65;99840.41;4878755;29;20003;-65
2023/01/24 18:56:10;;;;;;;;;;;;;;;4.01;72.80;99839.66;4870983;29;20522;-64
2023/01/24 18:58:36;;;;;;;;;;;;;;;3.99;73.51;99838.84;4879621;29;20369;-66
2023/01/24 19:01:08;;;;;;;;;;;;;;;3.96;72.84;99836.28;4858691;29;19926;-63
2023/01/24 19:03:34;;;;;;;;;;;;;;;3.93;73.64;99828.53;4879716;29;19939;-66
2023/01/24 19:05:59;;;;;;;;;;;;;;;3.99;75.69;99833.63;4877148;29;19927;-63
2023/01/24 19:08:24;;;;;;;;;;;;;;;4.01;74.65;99837.06;4883216;29;19934;-67
2023/01/24 19:10:49;;;;;;;;;;;;;;;3.97;74.04;99840.59;4879286;29;19919;-65
2023/01/24 19:13:14;;;;;;;;;;;;;;;3.95;74.17;99841.47;4878407;29;19916;-66
2023/01/24 19:15:40;;;;;;;;;;;;;;;3.92;74.14;99841.53;4869677;29;19958;-65
2023/01/24 19:18:05;;;;;;;;;;;;;;;3.88;73.44;99858.88;4875643;29;19927;-64
2023/01/24 19:20:30;;;;;;;;;;;;;;;3.86;73.78;99855.47;4879516;29;19916;-64
2023/01/24 19:22:55;;;;;;;;;;;;;;;3.83;73.99;99845.13;4878746;29;19920;-64
2023/01/24 19:25:20;;;;;;;;;;;;;;;3.79;73.83;99846.91;4878188;29;19927;-65
2023/01/24 19:27:46;;;;;;;;;;;;;;;3.80;74.14;99852.97;4875576;29;19920;-65
2023/01/24 19:30:11;;;;;;;;;;;;;;;3.78;74.30;99857.31;4878287;29;19980;-65
2023/01/24 19:32:36;;;;;;;;;;;;;;;3.76;74.34;99853.91;4878439;29;19920;-64